createdAt,value
2019-03-05T00:02:32.901Z,51.59
2019-03-05T00:05:07.626Z,51.44
2019-03-05T00:07:41.201Z,51.29
2019-03-05T00:10:18.000Z,51.20
2019-03-05T00:12:51.388Z,51.34
2019-03-05T00:15:27.136Z,51.45
2019-03-05T00:18:00.599Z,51.62
2019-03-05T00:20:34.115Z,51.72
2019-03-05T00:23:08.433Z,51.51
2019-03-05T00:25:42.045Z,51.26
2019-03-05T00:28:21.617Z,51.12
2019-03-05T00:31:13.356Z,50.99
2019-03-05T00:33:58.886Z,51.22
2019-03-05T00:36:35.570Z,51.26
2019-03-05T00:39:23.831Z,51.20
2019-03-05T00:42:09.139Z,51.16
2019-03-05T00:45:14.328Z,50.99
2019-03-05T00:47:59.671Z,51.38
2019-03-05T00:50:36.266Z,51.19
2019-03-05T00:53:30.707Z,51.33
2019-03-05T00:56:10.181Z,51.31
2019-03-05T00:59:07.174Z,51.21
2019-03-05T01:01:59.893Z,51.15
2019-03-05T01:04:39.037Z,50.97
2019-03-05T01:07:12.427Z,51.15
2019-03-05T01:09:45.799Z,51.29
2019-03-05T01:12:19.572Z,51.47
2019-03-05T01:14:53.911Z,51.53
2019-03-05T01:17:27.318Z,51.46
2019-03-05T01:20:00.907Z,51.58
2019-03-05T01:22:34.332Z,51.68
2019-03-05T01:25:22.976Z,51.63
2019-03-05T01:27:56.500Z,51.58
2019-03-05T01:30:40.509Z,51.53
2019-03-05T01:33:18.334Z,51.70
2019-03-05T01:35:53.447Z,51.79
2019-03-05T01:38:26.968Z,52.26
2019-03-05T01:41:02.118Z,52.30
2019-03-05T01:43:35.453Z,53.50
2019-03-05T01:46:08.980Z,53.26
2019-03-05T01:48:42.376Z,53.31
2019-03-05T01:51:15.842Z,53.92
2019-03-05T01:53:49.236Z,54.17
2019-03-05T01:56:22.610Z,53.64
2019-03-05T01:58:56.189Z,53.59
2019-03-05T02:01:29.656Z,54.07
2019-03-05T02:04:03.394Z,53.70
2019-03-05T02:06:36.815Z,53.86
2019-03-05T02:09:10.161Z,53.38
2019-03-05T02:11:43.696Z,53.47
2019-03-05T02:14:17.255Z,53.42
2019-03-05T02:16:50.758Z,53.61
2019-03-05T02:19:38.642Z,53.37
2019-03-05T02:22:26.751Z,53.51
2019-03-05T02:25:06.065Z,54.17
2019-03-05T02:28:14.447Z,53.74
2019-03-05T02:30:59.387Z,53.70
2019-03-05T02:33:53.663Z,53.81
2019-03-05T02:36:36.168Z,54.68
2019-03-05T02:39:36.892Z,54.60
2019-03-05T02:42:15.950Z,55.07
2019-03-05T02:45:07.340Z,56.53
2019-03-05T02:47:49.761Z,57.00
2019-03-05T02:50:45.836Z,56.90
2019-03-05T02:53:56.320Z,57.61
2019-03-05T02:56:32.839Z,57.71
2019-03-05T02:59:05.198Z,57.59
2019-03-05T03:01:42.961Z,58.30
2019-03-05T03:04:18.127Z,57.90
2019-03-05T03:06:51.539Z,58.10
2019-03-05T03:09:31.019Z,58.44
2019-03-05T03:12:04.441Z,57.83
2019-03-05T03:14:38.041Z,58.25
2019-03-05T03:17:11.523Z,58.31
2019-03-05T03:19:45.038Z,58.35
2019-03-05T03:22:18.984Z,57.94
2019-03-05T03:24:52.427Z,58.26
2019-03-05T03:27:25.900Z,58.03
2019-03-05T03:29:59.357Z,58.02
2019-03-05T03:32:32.959Z,59.43
2019-03-05T03:35:08.496Z,58.95
2019-03-05T03:37:42.015Z,58.99
2019-03-05T03:40:19.801Z,58.53
2019-03-05T03:42:53.215Z,58.86
2019-03-05T03:45:26.951Z,58.62
2019-03-05T03:48:00.385Z,58.70
2019-03-05T03:50:33.909Z,58.52
2019-03-05T03:53:07.457Z,58.61
2019-03-05T03:55:41.293Z,58.44
2019-03-05T03:58:14.817Z,58.85
2019-03-05T04:00:48.316Z,58.86
2019-03-05T04:03:21.802Z,58.90
2019-03-05T04:05:55.341Z,58.89
2019-03-05T04:08:28.824Z,58.62
2019-03-05T04:11:02.378Z,58.89
2019-03-05T04:13:35.861Z,59.18
2019-03-05T04:16:09.391Z,58.91
2019-03-05T04:18:42.889Z,59.39
2019-03-05T04:21:19.769Z,59.12
2019-03-05T04:23:51.538Z,59.13
2019-03-05T04:26:24.995Z,59.00
2019-03-05T04:28:58.360Z,58.56
2019-03-05T04:31:33.209Z,58.26
2019-03-05T04:34:06.586Z,58.45
2019-03-05T04:36:40.136Z,58.31
2019-03-05T04:39:13.551Z,58.03
2019-03-05T04:41:47.148Z,58.29
2019-03-05T04:44:22.389Z,57.71
2019-03-05T04:47:02.273Z,58.66
2019-03-05T04:49:37.475Z,58.10
2019-03-05T04:52:15.430Z,57.93
2019-03-05T04:54:48.840Z,58.18
2019-03-05T04:57:22.318Z,58.31
2019-03-05T04:59:55.791Z,57.84
2019-03-05T05:02:29.303Z,57.45
2019-03-05T05:05:02.886Z,57.07
2019-03-05T05:07:36.318Z,56.62
2019-03-05T05:10:10.209Z,57.26
2019-03-05T05:12:43.673Z,57.24
2019-03-05T05:15:34.022Z,57.68
2019-03-05T05:18:07.559Z,57.22
2019-03-05T05:20:40.961Z,56.97
2019-03-05T05:23:14.387Z,56.97
2019-03-05T05:25:47.993Z,56.76
2019-03-05T05:28:21.511Z,57.07
2019-03-05T05:30:55.050Z,56.78
2019-03-05T05:33:28.553Z,56.70
2019-03-05T05:36:02.002Z,56.71
2019-03-05T05:38:35.426Z,56.50
2019-03-05T05:41:08.951Z,55.76
2019-03-05T05:43:42.401Z,56.16
2019-03-05T05:46:15.873Z,56.17
2019-03-05T05:48:49.330Z,56.22
2019-03-05T05:51:22.839Z,56.00
2019-03-05T05:53:56.252Z,56.55
2019-03-05T05:56:29.704Z,56.44
2019-03-05T05:59:03.216Z,56.21
2019-03-05T06:01:36.740Z,56.06
2019-03-05T06:04:10.158Z,56.30
2019-03-05T06:06:43.629Z,56.30
2019-03-05T06:09:16.972Z,56.13
2019-03-05T06:11:50.450Z,56.06
2019-03-05T06:14:23.911Z,55.72
2019-03-05T06:16:57.340Z,55.59
2019-03-05T06:19:30.828Z,55.60
2019-03-05T06:22:04.288Z,55.44
2019-03-05T06:24:37.861Z,55.63
2019-03-05T06:27:11.319Z,55.76
2019-03-05T06:29:44.681Z,55.51
2019-03-05T06:32:18.160Z,55.67
2019-03-05T06:34:51.575Z,55.68
2019-03-05T06:37:25.121Z,55.94
2019-03-05T06:39:58.647Z,55.54
2019-03-05T06:42:32.149Z,55.11
2019-03-05T06:45:08.694Z,55.19
2019-03-05T06:47:42.207Z,55.21
2019-03-05T06:50:17.418Z,55.04
2019-03-05T06:52:51.009Z,55.28
2019-03-05T06:55:24.456Z,54.35
2019-03-05T06:57:57.844Z,55.36
2019-03-05T07:00:34.291Z,55.16
2019-03-05T07:03:09.329Z,55.16
2019-03-05T07:06:19.007Z,55.04
2019-03-05T07:09:05.113Z,54.97
2019-03-05T07:12:05.908Z,55.04
2019-03-05T07:14:42.572Z,55.11
2019-03-05T07:17:24.420Z,55.08
2019-03-05T07:20:24.927Z,54.84
2019-03-05T07:23:10.687Z,55.31
2019-03-05T07:25:44.088Z,55.59
2019-03-05T07:28:17.563Z,55.87
2019-03-05T07:30:51.056Z,55.42
2019-03-05T07:33:24.579Z,55.98
2019-03-05T07:35:58.120Z,55.76
2019-03-05T07:38:31.569Z,56.07
2019-03-05T07:41:05.007Z,56.12
2019-03-05T07:43:38.605Z,55.63
2019-03-05T07:46:12.095Z,56.23
2019-03-05T07:48:45.655Z,55.83
2019-03-05T07:51:19.144Z,54.83
2019-03-05T07:53:52.527Z,54.37
2019-03-05T07:56:25.996Z,54.65
2019-03-05T07:58:59.444Z,54.26
2019-03-05T08:01:32.927Z,54.25
2019-03-05T08:04:06.395Z,54.04
2019-03-05T08:06:39.838Z,53.89
2019-03-05T08:09:36.153Z,53.78
2019-03-05T08:12:35.338Z,53.85
2019-03-05T08:15:14.462Z,53.39
2019-03-05T08:17:48.003Z,53.59
2019-03-05T08:20:21.382Z,53.50
2019-03-05T08:22:54.939Z,54.71
2019-03-05T08:25:28.425Z,54.76
2019-03-05T08:28:01.977Z,54.09
2019-03-05T08:30:35.441Z,54.24
2019-03-05T08:33:09.061Z,54.53
2019-03-05T08:35:42.622Z,53.61
2019-03-05T08:38:16.140Z,53.28
2019-03-05T08:40:49.727Z,53.89
2019-03-05T08:43:23.418Z,53.62
2019-03-05T08:45:56.977Z,53.76
2019-03-05T08:48:30.474Z,53.55
2019-03-05T08:51:03.997Z,54.03
2019-03-05T08:53:49.012Z,53.79
2019-03-05T08:56:12.767Z,53.84
2019-03-05T08:58:46.379Z,54.14
2019-03-05T09:01:19.961Z,53.58
2019-03-05T09:03:53.431Z,53.70
2019-03-05T09:06:27.008Z,53.49
2019-03-05T09:09:00.518Z,52.77
2019-03-05T09:11:33.960Z,52.61
2019-03-05T09:14:07.829Z,53.18
2019-03-05T09:16:41.379Z,53.10
2019-03-05T09:19:14.863Z,52.73
2019-03-05T09:21:49.332Z,52.68
2019-03-05T09:24:23.085Z,51.52
2019-03-05T09:26:56.557Z,52.75
2019-03-05T09:29:30.307Z,52.66
2019-03-05T09:32:03.864Z,50.10
2019-03-05T09:34:37.408Z,50.16
2019-03-05T09:37:10.949Z,49.52
2019-03-05T09:39:44.471Z,46.40
2019-03-05T09:42:18.034Z,49.66
2019-03-05T09:44:51.464Z,50.23
2019-03-05T09:47:24.882Z,50.24
2019-03-05T09:49:58.610Z,49.73
2019-03-05T09:52:32.035Z,49.83
2019-03-05T09:55:08.775Z,50.19
2019-03-05T09:57:42.308Z,51.10
2019-03-05T10:00:21.027Z,50.71
2019-03-05T10:02:54.839Z,49.83
2019-03-05T10:05:28.412Z,50.21
2019-03-05T10:08:01.925Z,50.14
2019-03-05T10:10:35.610Z,49.39
2019-03-05T10:13:09.226Z,49.21
2019-03-05T10:15:42.828Z,47.70
2019-03-05T10:18:16.406Z,48.00
2019-03-05T10:20:49.963Z,46.84
2019-03-05T10:23:23.563Z,46.73
2019-03-05T10:25:57.084Z,46.76
2019-03-05T10:28:30.765Z,47.55
2019-03-05T10:31:04.678Z,47.54
2019-03-05T10:33:38.302Z,46.65
2019-03-05T10:36:11.778Z,47.51
2019-03-05T10:38:56.580Z,47.11
2019-03-05T10:41:20.568Z,47.61
2019-03-05T10:43:54.195Z,47.58
2019-03-05T10:46:27.613Z,46.21
2019-03-05T10:49:01.157Z,43.49
2019-03-05T10:51:34.571Z,43.25
2019-03-05T10:54:08.109Z,40.94
2019-03-05T10:56:41.594Z,37.58
2019-03-05T10:59:15.077Z,40.55
2019-03-05T11:01:48.900Z,41.48
2019-03-05T11:04:22.494Z,41.13
2019-03-05T11:06:56.141Z,41.24
2019-03-05T11:09:29.716Z,42.43
2019-03-05T11:12:03.239Z,43.10
2019-03-05T11:14:36.840Z,43.47
2019-03-05T11:17:10.625Z,43.00
2019-03-05T11:19:44.198Z,43.61
2019-03-05T11:22:17.764Z,43.71
2019-03-05T11:24:51.397Z,44.80
2019-03-05T11:27:24.889Z,44.10
2019-03-05T11:29:58.469Z,44.56
2019-03-05T11:32:32.123Z,44.65
2019-03-05T11:35:08.410Z,44.18
2019-03-05T11:37:42.006Z,44.35
2019-03-05T11:40:21.245Z,44.10
2019-03-05T11:42:55.098Z,44.68
2019-03-05T11:45:29.557Z,43.76
2019-03-05T11:48:03.269Z,42.68
2019-03-05T11:50:36.819Z,43.30
2019-03-05T11:53:10.385Z,43.42
2019-03-05T11:55:44.180Z,41.96
2019-03-05T11:58:17.740Z,41.44
2019-03-05T12:00:52.889Z,42.31
2019-03-05T12:03:26.469Z,42.15
2019-03-05T12:05:59.939Z,41.92
2019-03-05T12:08:33.515Z,42.11
2019-03-05T12:11:06.995Z,42.26
2019-03-05T12:13:40.411Z,42.55
2019-03-05T12:16:14.215Z,42.61
2019-03-05T12:18:47.702Z,42.23
2019-03-05T12:21:21.277Z,42.84
2019-03-05T12:23:54.689Z,43.24
2019-03-05T12:26:28.299Z,42.42
2019-03-05T12:29:01.744Z,42.01
2019-03-05T12:31:35.239Z,43.10
2019-03-05T12:34:08.793Z,42.60
2019-03-05T12:36:42.313Z,42.69
2019-03-05T12:39:17.069Z,42.06
2019-03-05T12:41:50.535Z,42.62
2019-03-05T12:44:24.033Z,42.97
2019-03-05T12:46:57.492Z,43.74
2019-03-05T12:49:31.008Z,43.78
2019-03-05T12:52:04.576Z,43.90
2019-03-05T12:54:38.055Z,44.23
2019-03-05T12:57:11.611Z,44.31
2019-03-05T12:59:45.261Z,43.37
2019-03-05T13:02:18.678Z,43.78
2019-03-05T13:04:52.128Z,44.39
2019-03-05T13:07:25.703Z,44.29
2019-03-05T13:09:59.149Z,43.53
2019-03-05T13:12:35.940Z,44.13
2019-03-05T13:15:10.652Z,46.27
2019-03-05T13:17:47.023Z,49.46
2019-03-05T13:20:22.626Z,51.43
2019-03-05T13:22:54.538Z,53.71
2019-03-05T13:25:29.715Z,54.27
2019-03-05T13:28:04.259Z,55.65
2019-03-05T13:30:40.335Z,55.73
2019-03-05T13:33:13.361Z,55.60
2019-03-05T13:35:46.883Z,55.23
2019-03-05T13:38:20.310Z,55.27
2019-03-05T13:40:53.889Z,55.53
2019-03-05T13:43:27.388Z,56.03
2019-03-05T13:46:00.917Z,56.79
2019-03-05T13:48:59.451Z,57.14
2019-03-05T13:51:38.785Z,57.51
2019-03-05T13:54:37.905Z,57.65
2019-03-05T13:57:31.130Z,58.07
2019-03-05T14:00:08.303Z,57.90
2019-03-05T14:03:14.394Z,57.69
2019-03-05T14:05:53.527Z,57.46
2019-03-05T14:09:03.211Z,57.41
2019-03-05T14:11:36.726Z,57.79
2019-03-05T14:14:13.453Z,58.03
2019-03-05T14:16:48.169Z,58.17
2019-03-05T14:19:21.727Z,57.99
2019-03-05T14:21:55.348Z,58.15
2019-03-05T14:24:29.065Z,58.23
2019-03-05T14:27:02.596Z,58.54
2019-03-05T14:29:36.216Z,58.55
2019-03-05T14:32:09.898Z,59.16
2019-03-05T14:34:46.658Z,58.92
2019-03-05T14:37:20.102Z,58.79
2019-03-05T14:39:53.621Z,58.62
2019-03-05T14:42:27.217Z,58.49
2019-03-05T14:45:00.785Z,58.06
2019-03-05T14:47:34.404Z,58.34
2019-03-05T14:50:08.720Z,58.29
2019-03-05T14:52:42.446Z,58.16
2019-03-05T14:55:16.102Z,58.17
2019-03-05T14:57:49.837Z,58.06
2019-03-05T15:00:23.822Z,57.65
2019-03-05T15:02:57.533Z,57.75
2019-03-05T15:05:31.138Z,57.77
2019-03-05T15:08:04.805Z,57.91
2019-03-05T15:10:38.274Z,57.92
2019-03-05T15:13:18.576Z,57.87
2019-03-05T15:15:47.116Z,57.84
2019-03-05T15:18:20.672Z,57.87
2019-03-05T15:20:54.185Z,58.00
2019-03-05T15:23:27.712Z,57.98
2019-03-05T15:26:01.263Z,57.87
2019-03-05T15:28:34.773Z,57.86
2019-03-05T15:31:08.314Z,57.48
2019-03-05T15:33:42.041Z,57.43
2019-03-05T15:38:50.785Z,57.21
2019-03-05T15:41:24.340Z,57.21
2019-03-05T15:43:57.807Z,57.38
2019-03-05T15:46:31.459Z,57.67
2019-03-05T15:49:04.944Z,57.97
2019-03-05T15:51:38.416Z,57.78
2019-03-05T15:54:12.671Z,57.93
2019-03-05T15:56:46.326Z,57.91
2019-03-05T15:59:19.943Z,57.86
2019-03-05T16:01:53.441Z,57.93
2019-03-05T16:04:26.992Z,58.01
2019-03-05T16:07:00.591Z,57.71
2019-03-05T16:09:35.009Z,57.71
2019-03-05T16:12:09.751Z,57.83
2019-03-05T16:14:44.294Z,57.81
2019-03-05T16:17:18.730Z,57.93
2019-03-05T16:19:52.814Z,58.05
2019-03-05T16:22:26.500Z,57.99
2019-03-05T16:25:00.025Z,58.05
2019-03-05T16:27:33.503Z,58.07
2019-03-05T16:30:15.018Z,57.96
2019-03-05T16:32:50.071Z,57.87
2019-03-05T16:35:30.696Z,57.77
2019-03-05T16:38:14.992Z,57.75
2019-03-05T16:40:57.930Z,57.86
2019-03-05T16:43:38.161Z,58.07
2019-03-05T16:46:16.394Z,58.01
2019-03-05T16:49:08.589Z,57.93
2019-03-05T16:51:49.865Z,57.84
2019-03-05T16:54:34.353Z,57.84
2019-03-05T16:57:09.484Z,58.06
2019-03-05T16:59:44.547Z,58.18
2019-03-05T17:02:19.787Z,58.08
2019-03-05T17:05:00.838Z,58.18
2019-03-05T17:07:44.836Z,58.08
2019-03-05T17:10:30.041Z,58.12
2019-03-05T17:13:03.673Z,58.21
2019-03-05T17:15:37.183Z,58.10
2019-03-05T17:18:10.802Z,58.22
2019-03-05T17:20:44.277Z,57.99
2019-03-05T17:23:17.916Z,57.89
2019-03-05T17:25:51.445Z,57.92
2019-03-05T17:28:24.922Z,58.04
2019-03-05T17:30:58.512Z,58.07
2019-03-05T17:33:32.520Z,57.96
2019-03-05T17:36:06.219Z,58.04
2019-03-05T17:38:39.741Z,57.95
2019-03-05T17:41:13.496Z,58.03
2019-03-05T17:43:47.268Z,57.97
2019-03-05T17:46:20.743Z,58.03
2019-03-05T17:48:54.300Z,58.08
2019-03-05T17:51:27.863Z,58.19
2019-03-05T17:54:01.464Z,58.22
2019-03-05T17:56:34.963Z,58.37
2019-03-05T17:59:08.852Z,58.29
2019-03-05T18:01:42.423Z,58.39
2019-03-05T18:04:15.971Z,58.55
2019-03-05T18:06:49.560Z,58.53
2019-03-05T18:09:23.567Z,58.74
2019-03-05T18:11:57.172Z,58.76
2019-03-05T18:14:30.829Z,58.77
2019-03-05T18:17:04.407Z,58.84
2019-03-05T18:19:37.937Z,59.01
2019-03-05T18:22:11.722Z,59.03
2019-03-05T18:24:45.359Z,59.03
2019-03-05T18:27:18.914Z,58.98
2019-03-05T18:29:52.517Z,58.98
2019-03-05T18:32:26.126Z,59.12
2019-03-05T18:34:59.730Z,59.08
2019-03-05T18:37:33.384Z,59.34
2019-03-05T18:40:10.075Z,59.34
2019-03-05T18:42:43.901Z,59.43
2019-03-05T18:45:23.045Z,59.43
2019-03-05T18:47:56.597Z,59.38
2019-03-05T18:50:30.243Z,59.49
2019-03-05T18:53:05.261Z,59.46
2019-03-05T18:55:38.728Z,59.46
2019-03-05T18:58:12.247Z,59.40
2019-03-05T19:00:45.863Z,59.40
2019-03-05T19:03:20.297Z,59.46
2019-03-05T19:05:53.859Z,59.45
2019-03-05T19:08:27.297Z,59.17
2019-03-05T19:11:00.902Z,59.17
2019-03-05T19:13:34.568Z,59.33
2019-03-05T19:16:07.994Z,59.34
2019-03-05T19:18:41.526Z,59.22
2019-03-05T19:21:15.017Z,59.27
2019-03-05T19:23:48.496Z,59.30
2019-03-05T19:26:22.149Z,59.21
2019-03-05T19:28:55.734Z,59.15
2019-03-05T19:31:29.353Z,59.06
2019-03-05T19:34:02.877Z,59.05
2019-03-05T19:36:36.415Z,59.16
2019-03-05T19:39:10.436Z,59.11
2019-03-05T19:41:44.120Z,59.08
2019-03-05T19:44:17.667Z,59.07
2019-03-05T19:46:51.363Z,59.09
2019-03-05T19:49:24.996Z,59.08
2019-03-05T19:51:58.758Z,59.13
2019-03-05T19:54:32.365Z,59.13
2019-03-05T19:57:06.081Z,59.18
2019-03-05T19:59:39.693Z,59.17
2019-03-05T20:02:13.210Z,59.25
2019-03-05T20:04:46.683Z,59.21
2019-03-05T20:07:20.177Z,59.14
2019-03-05T20:09:53.643Z,59.10
2019-03-05T20:12:27.310Z,59.13
2019-03-05T20:15:00.882Z,59.20
2019-03-05T20:17:34.325Z,59.22
2019-03-05T20:20:09.530Z,59.22
2019-03-05T20:22:43.031Z,59.25
2019-03-05T20:25:22.123Z,59.26
2019-03-05T20:27:55.742Z,59.25
2019-03-05T20:30:29.414Z,59.17
2019-03-05T20:33:02.932Z,59.22
2019-03-05T20:35:36.545Z,59.21
2019-03-05T20:38:10.465Z,59.18
2019-03-05T20:40:44.006Z,59.18
2019-03-05T20:43:17.572Z,59.27
2019-03-05T20:45:56.700Z,59.24
2019-03-05T20:48:30.209Z,59.21
2019-03-05T20:51:03.717Z,59.03
2019-03-05T20:53:37.256Z,59.15
2019-03-05T20:56:10.835Z,59.08
2019-03-05T20:58:44.416Z,59.06
2019-03-05T21:01:18.103Z,58.99
2019-03-05T21:03:51.521Z,59.00
2019-03-05T21:06:25.649Z,58.91
2019-03-05T21:08:59.081Z,58.94
2019-03-05T21:11:32.599Z,59.04
2019-03-05T21:14:06.101Z,59.08
2019-03-05T21:16:39.506Z,58.98
2019-03-05T21:19:12.877Z,58.94
2019-03-05T21:21:46.634Z,58.93
2019-03-05T21:24:20.059Z,58.96
2019-03-05T21:26:53.512Z,58.94
2019-03-05T21:29:27.006Z,58.96
2019-03-05T21:32:00.421Z,58.83
2019-03-05T21:34:34.611Z,58.74
2019-03-05T21:37:10.389Z,58.75
2019-03-05T21:39:44.424Z,58.78
2019-03-05T21:42:17.984Z,58.81
2019-03-05T21:44:51.540Z,58.85
2019-03-05T21:47:25.154Z,58.87
2019-03-05T21:49:58.906Z,58.87
2019-03-05T21:52:32.432Z,58.85
2019-03-05T21:55:08.213Z,58.98
2019-03-05T21:57:41.898Z,59.09
2019-03-05T22:00:18.349Z,59.06
2019-03-05T22:02:51.901Z,59.01
2019-03-05T22:05:25.454Z,59.00
2019-03-05T22:07:59.088Z,59.11
2019-03-05T22:10:32.553Z,59.04
2019-03-05T22:13:06.101Z,59.01
2019-03-05T22:15:39.650Z,58.91
2019-03-05T22:18:13.251Z,58.94
2019-03-05T22:20:46.873Z,58.91
2019-03-05T22:23:20.531Z,58.89
2019-03-05T22:25:54.102Z,58.89
2019-03-05T22:28:27.642Z,58.95
2019-03-05T22:31:01.139Z,58.99
2019-03-05T22:33:34.755Z,59.00
2019-03-05T22:36:08.217Z,58.94
2019-03-05T22:38:41.908Z,58.99
2019-03-05T22:41:15.397Z,58.92
2019-03-05T22:43:48.919Z,58.98
2019-03-05T22:46:22.532Z,59.09
2019-03-05T22:48:56.156Z,59.08
2019-03-05T22:51:29.784Z,59.18
2019-03-05T22:54:03.196Z,59.21
2019-03-05T22:56:36.771Z,59.21
2019-03-05T22:59:10.470Z,59.22
2019-03-05T23:01:44.215Z,59.24
2019-03-05T23:04:18.216Z,59.22
2019-03-05T23:06:51.819Z,59.14
2019-03-05T23:09:25.976Z,59.11
2019-03-05T23:11:59.491Z,59.04
2019-03-05T23:14:33.273Z,58.99
2019-03-05T23:17:07.340Z,58.93
2019-03-05T23:19:40.903Z,58.97
2019-03-05T23:22:15.053Z,58.97
2019-03-05T23:24:48.618Z,58.86
2019-03-05T23:27:22.321Z,58.74
2019-03-05T23:29:55.965Z,58.75
2019-03-05T23:32:29.597Z,58.73
2019-03-05T23:35:03.023Z,58.72
2019-03-05T23:37:36.583Z,58.82
2019-03-05T23:40:11.285Z,58.92
2019-03-05T23:42:45.156Z,58.84
2019-03-05T23:45:19.417Z,58.91
2019-03-05T23:47:52.917Z,58.83
2019-03-05T23:50:26.344Z,58.97
2019-03-05T23:52:59.833Z,59.06
2019-03-05T23:55:33.618Z,59.00
2019-03-05T23:58:07.135Z,59.09
